Atoka, OK

4:15 PM CST on November 13, 2019 (GMT -0600)
Atoka Municipal

Weather History for KAQR - July, 2019

Change the Weather History Date:

Wednesday, July 24, 2019

  Actual Average (KMLC) Record (KMLC)
Temperature  
Mean Temperature 73 °F -  
Max Temperature 86 °F 93 °F 108 °F (1964)
Min Temperature 60 °F 71 °F 59 °F (2019)
Cooling Degree Days 8    
Growing Degree Days 23 (Base 50)    
Moisture  
Dew Point 59 °F    
Average Humidity 65    
Maximum Humidity 100    
Minimum Humidity 35    
Precipitation  
Precipitation 0.00 in - - ()
Sea Level Pressure  
Sea Level Pressure 30.15 in    
Wind  
Wind Speed 1 mph (ESE)    
Max Wind Speed 6 mph    
Max Gust Speed -    
Visibility 10 miles    
Events      
Averages and records for this station are not official NWS values.
T = Trace of Precipitation, MM = Missing Value Source: NWS Daily Summary

Daily Weather History Graph

Daily Weather History Graph

Search for Another Location

Airport or City:

Astronomy

Jul. 24, 2019 Rise Set
Actual Time 6:29 AM CDT 8:32 PM CDT
Civil Twilight 6:01 AM CDT 9:00 PM CDT
Nautical Twilight 5:27 AM CDT 9:34 PM CDT
Astronomical Twilight 4:50 AM CDT 10:11 PM CDT
Moon 12:36 AM CDT (7/24) 1:23 PM CDT (7/24)
Length of Visible Light 14h 59m
Length of Day
14h 03m
Waning Gibbous, 53% of the Moon is Illuminated
Jul 24
Waning Gibbous
Jul 24
Last Quarter
Jul 31
New
Aug 7
First Quarter
Aug 15
Full

Hourly Weather History & Observations

Time (CDT) Temp. Heat Index Dew Point Humidity Pressure Visibility Wind Dir Wind Speed Gust Speed Precip Events Conditions
12:15 AM 68.0 °F - 59.0 °F 73% 30.16 in 10.0 mi Calm Calm - N/A   Clear
12:35 AM 66.2 °F - 59.0 °F 78% 30.17 in 10.0 mi Calm Calm - N/A   Clear
12:55 AM 66.2 °F - 59.0 °F 78% 30.17 in 10.0 mi Calm Calm - N/A   Clear
1:15 AM 64.4 °F - 59.0 °F 83% 30.17 in 10.0 mi Calm Calm - N/A   Clear
1:35 AM 64.4 °F - 59.0 °F 83% 30.17 in 10.0 mi Calm Calm - N/A   Clear
1:55 AM 64.4 °F - 59.0 °F 83% 30.17 in 10.0 mi Calm Calm - N/A   Clear
2:15 AM 64.4 °F - 59.0 °F 83% 30.17 in 10.0 mi Calm Calm - N/A   Clear
2:35 AM 64.4 °F - 59.0 °F 83% 30.17 in 10.0 mi Calm Calm - N/A   Clear
2:55 AM 62.6 °F - 59.0 °F 88% 30.16 in 10.0 mi Calm Calm - N/A   Clear
3:15 AM 62.6 °F - 59.0 °F 88% 30.16 in 10.0 mi Calm Calm - N/A   Clear
3:35 AM 62.6 °F - 60.8 °F 94% 30.16 in 10.0 mi Calm Calm - N/A   Clear
3:55 AM 62.6 °F - 60.8 °F 94% 30.15 in 10.0 mi Calm Calm - N/A   Clear
4:15 AM 62.6 °F - 60.8 °F 94% 30.15 in 10.0 mi Calm Calm - N/A   Clear
4:35 AM 62.6 °F - 60.8 °F 94% 30.15 in 10.0 mi Calm Calm - N/A   Clear
4:55 AM 62.6 °F - 60.8 °F 94% 30.15 in 10.0 mi Calm Calm - N/A   Clear
5:15 AM 60.8 °F - 60.8 °F 100% 30.16 in 10.0 mi Calm Calm - N/A   Clear
5:35 AM 60.8 °F - 60.8 °F 100% 30.16 in 10.0 mi Calm Calm - N/A   Clear
5:55 AM 60.8 °F - 60.8 °F 100% 30.17 in 10.0 mi Calm Calm - N/A   Clear
6:15 AM 60.8 °F - 60.8 °F 100% 30.18 in 10.0 mi Calm Calm - N/A   Clear
6:35 AM 60.8 °F - 60.8 °F 100% 30.18 in 10.0 mi Calm Calm - N/A   Clear
7:10 AM 60.8 °F - 60.8 °F 100% 30.19 in 10.0 mi Calm Calm - N/A   Clear
7:35 AM 62.6 °F - 62.6 °F 100% 30.20 in 10.0 mi Calm Calm - N/A   Clear
7:55 AM 64.4 °F - 62.6 °F 94% 30.21 in 10.0 mi Calm Calm - N/A   Clear
8:15 AM 66.2 °F - 62.6 °F 88% 30.23 in 10.0 mi Calm Calm - N/A   Clear
8:35 AM 68.0 °F - 62.6 °F 83% 30.23 in 10.0 mi Calm Calm - N/A   Clear
8:55 AM 69.8 °F - 60.8 °F 73% 30.23 in 10.0 mi Calm Calm - N/A   Clear
9:15 AM 73.4 °F - 60.8 °F 65% 30.23 in 10.0 mi SSE 3.5 mph - N/A   Clear
9:35 AM 73.4 °F - 60.8 °F 65% 30.23 in 10.0 mi SSE 4.6 mph - N/A   Clear
9:55 AM 77.0 °F - 60.8 °F 57% 30.23 in 10.0 mi SE 4.6 mph - N/A   Clear
10:15 AM 77.0 °F - 60.8 °F 57% 30.22 in 10.0 mi SE 3.5 mph - N/A   Clear
10:35 AM 78.8 °F - 60.8 °F 54% 30.22 in 10.0 mi ESE 3.5 mph - N/A   Clear
10:55 AM 78.8 °F - 59.0 °F 51% 30.21 in 5.0 mi South 4.6 mph - N/A   Haze
11:15 AM 78.8 °F - 59.0 °F 51% 30.21 in 4.0 mi South 3.5 mph - N/A   Haze
11:35 AM 80.6 °F 80.8 °F 57.2 °F 45% 30.21 in 10.0 mi East 3.5 mph - N/A   Clear
11:55 AM 80.6 °F 81.1 °F 59.0 °F 48% 30.21 in 10.0 mi ESE 3.5 mph - N/A   Clear
12:30 PM 82.4 °F 82.0 °F 57.2 °F 42% 30.19 in 10.0 mi ENE 4.6 mph - N/A   Scattered Clouds
12:55 PM 82.4 °F 81.7 °F 55.4 °F 39% 30.19 in 10.0 mi Calm Calm - N/A   Clear
1:15 PM 82.4 °F 81.7 °F 55.4 °F 39% 30.18 in 10.0 mi Calm Calm - N/A   Clear
1:35 PM 82.4 °F 81.7 °F 55.4 °F 39% 30.17 in 10.0 mi NE 3.5 mph - N/A   Clear
1:55 PM 82.4 °F 81.7 °F 55.4 °F 39% 30.16 in 10.0 mi South 3.5 mph - N/A   Scattered Clouds
2:15 PM 82.4 °F 81.7 °F 55.4 °F 39% 30.15 in 10.0 mi SSW 4.6 mph - N/A   Scattered Clouds
2:30 PM 84.2 °F 83.0 °F 55.4 °F 37% 30.15 in 10.0 mi Calm Calm - N/A   Scattered Clouds
2:55 PM 86.0 °F 84.5 °F 55.4 °F 35% 30.13 in 10.0 mi Calm Calm - N/A   Scattered Clouds
3:15 PM 86.0 °F 84.5 °F 55.4 °F 35% 30.12 in 10.0 mi Calm Calm - N/A   Scattered Clouds
3:35 PM 86.0 °F 84.5 °F 55.4 °F 35% 30.12 in 10.0 mi East 5.8 mph - N/A   Scattered Clouds
3:55 PM 86.0 °F 84.5 °F 55.4 °F 35% 30.11 in 10.0 mi Calm Calm - N/A   Clear
4:15 PM 86.0 °F 84.5 °F 55.4 °F 35% 30.10 in 10.0 mi Calm Calm - N/A   Clear
4:35 PM 86.0 °F 84.5 °F 55.4 °F 35% 30.10 in 10.0 mi Calm Calm - N/A   Clear
4:55 PM 86.0 °F 84.5 °F 55.4 °F 35% 30.09 in 10.0 mi North 4.6 mph - N/A   Clear
5:15 PM 86.0 °F 84.5 °F 55.4 °F 35% 30.09 in 10.0 mi NW 3.5 mph - N/A   Clear
5:35 PM 86.0 °F 84.5 °F 55.4 °F 35% 30.09 in 10.0 mi Calm Calm - N/A   Clear
5:50 PM 86.0 °F 84.5 °F 55.4 °F 35% 30.08 in 10.0 mi Calm Calm - N/A   Clear
6:15 PM 86.0 °F 84.5 °F 55.4 °F 35% 30.08 in 10.0 mi North 3.5 mph - N/A   Clear
6:35 PM 86.0 °F 84.5 °F 55.4 °F 35% 30.08 in 10.0 mi North 3.5 mph - N/A   Clear
6:55 PM 86.0 °F 84.5 °F 55.4 °F 35% 30.08 in 10.0 mi Calm Calm - N/A   Clear
7:15 PM 86.0 °F 84.5 °F 55.4 °F 35% 30.08 in 10.0 mi Calm Calm - N/A   Clear
7:35 PM 82.4 °F 82.5 °F 59.0 °F 45% 30.09 in 10.0 mi WSW 3.5 mph - N/A   Clear
7:55 PM 80.6 °F 81.1 °F 59.0 °F 48% 30.09 in 10.0 mi Calm Calm - N/A   Clear
8:15 PM 80.6 °F 81.1 °F 59.0 °F 48% 30.09 in 10.0 mi Calm Calm - N/A   Clear
8:35 PM 77.0 °F - 60.8 °F 57% 30.09 in 10.0 mi Calm Calm - N/A   Clear
8:55 PM 73.4 °F - 62.6 °F 69% 30.10 in 10.0 mi Calm Calm - N/A   Clear
9:15 PM 73.4 °F - 62.6 °F 69% 30.10 in 10.0 mi Calm Calm - N/A   Clear
9:35 PM 71.6 °F - 62.6 °F 73% 30.10 in 10.0 mi Calm Calm - N/A   Clear
9:55 PM 69.8 °F - 62.6 °F 78% 30.10 in 10.0 mi Calm Calm - N/A   Clear
10:15 PM 69.8 °F - 62.6 °F 78% 30.10 in 10.0 mi Calm Calm - N/A   Clear
10:35 PM 68.0 °F - 62.6 °F 83% 30.11 in 10.0 mi Calm Calm - N/A   Clear
10:55 PM 68.0 °F - 60.8 °F 78% 30.12 in 10.0 mi Calm Calm - N/A   Clear
11:15 PM 69.8 °F - 60.8 °F 73% 30.12 in 10.0 mi Calm Calm - N/A   Scattered Clouds
11:35 PM 68.0 °F - 60.8 °F 78% 30.12 in 10.0 mi Calm Calm - N/A   Scattered Clouds
11:55 PM 68.0 °F - 60.8 °F 78% 30.12 in 10.0 mi Calm Calm - N/A   Clear